Detall de PIREP

Printer-friendly versionPDF version

[2011/05/25 16:25:00]
Flight IATA:CT2104
Pilot Number:042
Company ICAO:CAT
Aircraft Type:F100/F
PAX:40
Aircraft Registration:DA
Departing Airport: LEVC
Destination Airport: LEBB
Alternate Airport:LEMD
Online: VATSIM
Route:MANDY UM176 CLS UN733 HORTA UN867 DGO UL176 CEGAM
Flight Level:F310
No Slew and time accel
No pause
Crash detect
Detect pilot in Cockpit between each 30 and 45 minutes
16:25 Zero fuel Weight: 80840 Lbs, Fuel Weight: 23461 Lbs
16:25 VATSIM:LEVC 251600Z 14013KT 9999 FEW030 33/11 Q1017 NOSIG
16:25 VATSIM:LEBB 251600Z 29011KT 9999 SCT035TCU 28/17 Q1017 TEMPO TSRA SCT025CB
16:25 VOICE CATALONIAN
16:38 Parking Brakes off
16:44 Take-off
16:44 Take off Weight: 103801 Lbs
16:44 Wind: 143 @ 012 Knots Heading: 293
16:44 POS N39 29 41 W000 29 49
16:44 Gear Up: 163 Knots
16:44 Flaps:2 at 163 Knots
16:44 Flaps:1 at 166 Knots
16:44 Flaps:0 at 191 Knots
16:59 Wind:186@014 Knots Heading: 297 Ground Speed: 400 Knots Altitude 17936 ft
17:14 Wind:208@014 Knots Heading: 025 Ground Speed: 462 Knots Altitude 25187 ft
17:29 Wind:235@015 Knots Heading: 299 Ground Speed: 271 Knots Altitude 11765 ft
17:30 Flaps:1 at 187 Knots
17:31 Flaps:2 at 185 Knots
17:35 Flaps:3 at 162 Knots
17:35 Gear Down: 163 Knots
17:36 Flaps:4 at 159 Knots
17:38 TouchDown:Rate -518 ft/min Speed: 125 Knots
17:39 VATSIM:LEBB 251700Z 29006KT 220V340 9999 SCT035TCU 24/16 Q1019 TEMPO TSRA SCT025CB
17:39 Land
17:39 Wind:283@006 Knots
17:39 Heading: 298
17:39 Flight Duration: 00:55
17:39 Landing Weight: 98680 Lbs
17:39 POS N43 18 16 W002 55 11
17:43 Parking brakes on
17:43 Block to Block Duration: 01:05
17:43 Final Fuel: 17658 Lbls
17:43 Spent Fuel: 5802 Lbls
17:43 Flight Length: 315 NM
17:43 TOD Land Length: 315 NM

Exportar CSV

Powered by Drupal - Modified by Danger4k